sensor_id;sensor_type;location;lat;lon;timestamp;P1;P2;P0
57049;PMS7003;42935;50.966;16.992;2023-09-19T00:01:06;3;2;2
57049;PMS7003;42935;50.966;16.992;2023-09-19T00:04:27;3;2;1
57049;PMS7003;42935;50.966;16.992;2023-09-19T00:07:47;3;2;2
57049;PMS7003;42935;50.966;16.992;2023-09-19T00:11:09;2;2;2
57049;PMS7003;42935;50.966;16.992;2023-09-19T00:14:26;2;1;1
57049;PMS7003;42935;50.966;16.992;2023-09-19T00:17:40;4;2;2
57049;PMS7003;42935;50.966;16.992;2023-09-19T00:21:03;2;2;2
57049;PMS7003;42935;50.966;16.992;2023-09-19T00:24:22;3;3;2
57049;PMS7003;42935;50.966;16.992;2023-09-19T00:27:37;2;2;1
57049;PMS7003;42935;50.966;16.992;2023-09-19T00:30:57;3;2;2
57049;PMS7003;42935;50.966;16.992;2023-09-19T00:34:16;2;2;1
57049;PMS7003;42935;50.966;16.992;2023-09-19T00:37:31;4;2;1
57049;PMS7003;42935;50.966;16.992;2023-09-19T00:40:48;2;2;1
57049;PMS7003;42935;50.966;16.992;2023-09-19T00:44:03;2;2;1
57049;PMS7003;42935;50.966;16.992;2023-09-19T00:47:18;3;2;1
57049;PMS7003;42935;50.966;16.992;2023-09-19T00:50:37;1;1;1
57049;PMS7003;42935;50.966;16.992;2023-09-19T00:53:58;3;2;1
57049;PMS7003;42935;50.966;16.992;2023-09-19T00:57:11;3;2;2
57049;PMS7003;42935;50.966;16.992;2023-09-19T01:00:32;2;2;1
57049;PMS7003;42935;50.966;16.992;2023-09-19T01:03:48;1;1;1
57049;PMS7003;42935;50.966;16.992;2023-09-19T01:07:05;2;2;1
57049;PMS7003;42935;50.966;16.992;2023-09-19T01:10:24;1;1;1
57049;PMS7003;42935;50.966;16.992;2023-09-19T01:17:13;2;1;1
57049;PMS7003;42935;50.966;16.992;2023-09-19T01:20:37;2;1;1
57049;PMS7003;42935;50.966;16.992;2023-09-19T01:24:15;2;1;0
57049;PMS7003;42935;50.966;16.992;2023-09-19T01:31:03;1;1;0
57049;PMS7003;42935;50.966;16.992;2023-09-19T01:34:22;1;1;0
57049;PMS7003;42935;50.966;16.992;2023-09-19T01:37:41;2;1;1
57049;PMS7003;42935;50.966;16.992;2023-09-19T01:41:03;2;1;0
57049;PMS7003;42935;50.966;16.992;2023-09-19T01:47:55;1;1;0
57049;PMS7003;42935;50.966;16.992;2023-09-19T01:51:20;2;1;1
57049;PMS7003;42935;50.966;16.992;2023-09-19T01:54:48;0;0;0
57049;PMS7003;42935;50.966;16.992;2023-09-19T01:58:08;2;0;0
57049;PMS7003;42935;50.966;16.992;2023-09-19T02:01:34;1;1;0
57049;PMS7003;42935;50.966;16.992;2023-09-19T02:04:50;1;1;0
57049;PMS7003;42935;50.966;16.992;2023-09-19T02:08:05;2;0;0
57049;PMS7003;42935;50.966;16.992;2023-09-19T02:11:16;2;0;0
57049;PMS7003;42935;50.966;16.992;2023-09-19T02:14:33;1;0;0
57049;PMS7003;42935;50.966;16.992;2023-09-19T02:17:54;1;0;0
57049;PMS7003;42935;50.966;16.992;2023-09-19T02:21:11;0;0;0
57049;PMS7003;42935;50.966;16.992;2023-09-19T02:24:25;0;0;0
57049;PMS7003;42935;50.966;16.992;2023-09-19T02:27:42;0;0;0
57049;PMS7003;42935;50.966;16.992;2023-09-19T02:30:59;1;1;0
57049;PMS7003;42935;50.966;16.992;2023-09-19T02:34:12;2;0;0
57049;PMS7003;42935;50.966;16.992;2023-09-19T02:37:35;0;0;0
57049;PMS7003;42935;50.966;16.992;2023-09-19T02:40:52;2;0;0
57049;PMS7003;42935;50.966;16.992;2023-09-19T02:44:13;2;1;1
57049;PMS7003;42935;50.966;16.992;2023-09-19T02:47:58;1;1;0
57049;PMS7003;42935;50.966;16.992;2023-09-19T02:51:17;0;0;0
57049;PMS7003;42935;50.966;16.992;2023-09-19T02:54:31;3;1;1
57049;PMS7003;42935;50.966;16.992;2023-09-19T02:57:51;1;0;0
57049;PMS7003;42935;50.966;16.992;2023-09-19T03:01:10;0;0;0
57049;PMS7003;42935;50.966;16.992;2023-09-19T03:04:28;1;1;0
57049;PMS7003;42935;50.966;16.992;2023-09-19T03:07:50;1;0;0
57049;PMS7003;42935;50.966;16.992;2023-09-19T03:11:06;1;0;0
57049;PMS7003;42935;50.966;16.992;2023-09-19T03:14:29;2;1;0
57049;PMS7003;42935;50.966;16.992;2023-09-19T03:17:47;1;0;0
57049;PMS7003;42935;50.966;16.992;2023-09-19T03:21:08;2;0;0
57049;PMS7003;42935;50.966;16.992;2023-09-19T03:24:23;3;0;0
57049;PMS7003;42935;50.966;16.992;2023-09-19T03:27:36;1;0;0
57049;PMS7003;42935;50.966;16.992;2023-09-19T03:34:20;1;0;0
57049;PMS7003;42935;50.966;16.992;2023-09-19T03:37:37;3;1;1
57049;PMS7003;42935;50.966;16.992;2023-09-19T03:40:52;0;0;0
57049;PMS7003;42935;50.966;16.992;2023-09-19T03:44:05;2;0;0
57049;PMS7003;42935;50.966;16.992;2023-09-19T03:47:20;1;0;0
57049;PMS7003;42935;50.966;16.992;2023-09-19T03:50:33;3;1;0
57049;PMS7003;42935;50.966;16.992;2023-09-19T03:53:46;1;0;0
57049;PMS7003;42935;50.966;16.992;2023-09-19T03:57:05;0;0;0
57049;PMS7003;42935;50.966;16.992;2023-09-19T04:00:22;0;0;0
57049;PMS7003;42935;50.966;16.992;2023-09-19T04:03:42;1;0;0
57049;PMS7003;42935;50.966;16.992;2023-09-19T04:07:00;0;0;0
57049;PMS7003;42935;50.966;16.992;2023-09-19T04:10:14;3;1;0
57049;PMS7003;42935;50.966;16.992;2023-09-19T04:13:31;5;1;0
57049;PMS7003;42935;50.966;16.992;2023-09-19T04:16:48;0;0;0
57049;PMS7003;42935;50.966;16.992;2023-09-19T04:20:01;1;1;0
57049;PMS7003;42935;50.966;16.992;2023-09-19T04:23:22;1;0;0
57049;PMS7003;42935;50.966;16.992;2023-09-19T04:26:35;1;0;0
57049;PMS7003;42935;50.966;16.992;2023-09-19T04:29:52;4;1;1
57049;PMS7003;42935;50.966;16.992;2023-09-19T04:33:14;2;1;1
57049;PMS7003;42935;50.966;16.992;2023-09-19T04:36:31;2;1;1
57049;PMS7003;42935;50.966;16.992;2023-09-19T04:39:48;1;0;0
57049;PMS7003;42935;50.966;16.992;2023-09-19T04:43:03;2;1;1
57049;PMS7003;42935;50.966;16.992;2023-09-19T04:46:18;2;2;1
57049;PMS7003;42935;50.966;16.992;2023-09-19T04:49:31;1;1;1
57049;PMS7003;42935;50.966;16.992;2023-09-19T04:52:48;4;2;1
57049;PMS7003;42935;50.966;16.992;2023-09-19T04:56:02;1;1;1
57049;PMS7003;42935;50.966;16.992;2023-09-19T04:59:17;2;1;1
57049;PMS7003;42935;50.966;16.992;2023-09-19T05:02:34;3;1;0
57049;PMS7003;42935;50.966;16.992;2023-09-19T05:05:52;1;1;0
57049;PMS7003;42935;50.966;16.992;2023-09-19T05:09:41;1;1;1
57049;PMS7003;42935;50.966;16.992;2023-09-19T05:12:59;1;1;0
57049;PMS7003;42935;50.966;16.992;2023-09-19T05:16:17;1;1;1
57049;PMS7003;42935;50.966;16.992;2023-09-19T05:19:32;4;1;0
57049;PMS7003;42935;50.966;16.992;2023-09-19T05:26:20;1;1;1
57049;PMS7003;42935;50.966;16.992;2023-09-19T05:29:33;4;2;1
57049;PMS7003;42935;50.966;16.992;2023-09-19T05:32:48;3;3;2
57049;PMS7003;42935;50.966;16.992;2023-09-19T05:36:05;4;3;2
57049;PMS7003;42935;50.966;16.992;2023-09-19T05:39:21;4;3;3
57049;PMS7003;42935;50.966;16.992;2023-09-19T05:42:38;6;3;2
57049;PMS7003;42935;50.966;16.992;2023-09-19T05:46:01;4;2;2
57049;PMS7003;42935;50.966;16.992;2023-09-19T05:49:16;6;3;2
57049;PMS7003;42935;50.966;16.992;2023-09-19T05:52:33;4;3;3
57049;PMS7003;42935;50.966;16.992;2023-09-19T05:55:48;5;4;3
57049;PMS7003;42935;50.966;16.992;2023-09-19T05:59:08;3;3;2
57049;PMS7003;42935;50.966;16.992;2023-09-19T06:02:25;4;3;2
57049;PMS7003;42935;50.966;16.992;2023-09-19T06:05:40;3;3;2
57049;PMS7003;42935;50.966;16.992;2023-09-19T06:08:53;4;3;2
57049;PMS7003;42935;50.966;16.992;2023-09-19T06:12:21;4;4;3
57049;PMS7003;42935;50.966;16.992;2023-09-19T06:15:36;4;3;2
57049;PMS7003;42935;50.966;16.992;2023-09-19T06:18:51;3;3;2
57049;PMS7003;42935;50.966;16.992;2023-09-19T06:22:06;4;4;3
57049;PMS7003;42935;50.966;16.992;2023-09-19T06:25:21;4;3;2
57049;PMS7003;42935;50.966;16.992;2023-09-19T06:28:38;4;4;3
57049;PMS7003;42935;50.966;16.992;2023-09-19T06:31:55;3;2;2
57049;PMS7003;42935;50.966;16.992;2023-09-19T06:35:13;3;3;2
57049;PMS7003;42935;50.966;16.992;2023-09-19T06:38:28;4;3;3
57049;PMS7003;42935;50.966;16.992;2023-09-19T06:41:46;4;3;2
57049;PMS7003;42935;50.966;16.992;2023-09-19T06:45:06;5;4;3
57049;PMS7003;42935;50.966;16.992;2023-09-19T06:48:31;6;4;3
57049;PMS7003;42935;50.966;16.992;2023-09-19T06:51:45;5;3;2
57049;PMS7003;42935;50.966;16.992;2023-09-19T06:54:58;3;3;2
57049;PMS7003;42935;50.966;16.992;2023-09-19T06:58:15;2;2;2
57049;PMS7003;42935;50.966;16.992;2023-09-19T07:01:38;2;2;2
57049;PMS7003;42935;50.966;16.992;2023-09-19T07:04:53;4;4;3
57049;PMS7003;42935;50.966;16.992;2023-09-19T07:08:06;4;3;2
57049;PMS7003;42935;50.966;16.992;2023-09-19T07:11:27;5;4;3
57049;PMS7003;42935;50.966;16.992;2023-09-19T07:14:42;3;3;2
57049;PMS7003;42935;50.966;16.992;2023-09-19T07:18:06;5;5;4
57049;PMS7003;42935;50.966;16.992;2023-09-19T07:21:27;5;5;4
57049;PMS7003;42935;50.966;16.992;2023-09-19T07:24:42;5;4;3
57049;PMS7003;42935;50.966;16.992;2023-09-19T07:27:59;6;6;4
57049;PMS7003;42935;50.966;16.992;2023-09-19T07:31:12;5;4;3
57049;PMS7003;42935;50.966;16.992;2023-09-19T07:34:34;3;3;3
57049;PMS7003;42935;50.966;16.992;2023-09-19T07:37:51;4;4;3
57049;PMS7003;42935;50.966;16.992;2023-09-19T07:41:08;6;5;4
57049;PMS7003;42935;50.966;16.992;2023-09-19T07:44:25;6;5;4
57049;PMS7003;42935;50.966;16.992;2023-09-19T07:47:48;5;4;3
57049;PMS7003;42935;50.966;16.992;2023-09-19T07:51:05;7;5;4
57049;PMS7003;42935;50.966;16.992;2023-09-19T07:54:19;5;4;4
57049;PMS7003;42935;50.966;16.992;2023-09-19T07:57:37;7;4;3
57049;PMS7003;42935;50.966;16.992;2023-09-19T08:01:02;5;4;3
57049;PMS7003;42935;50.966;16.992;2023-09-19T08:04:18;4;4;3
57049;PMS7003;42935;50.966;16.992;2023-09-19T08:07:37;2;2;2
57049;PMS7003;42935;50.966;16.992;2023-09-19T08:10:56;3;3;3
57049;PMS7003;42935;50.966;16.992;2023-09-19T08:14:11;3;2;2
57049;PMS7003;42935;50.966;16.992;2023-09-19T08:17:33;3;2;2
57049;PMS7003;42935;50.966;16.992;2023-09-19T08:20:50;2;2;2
57049;PMS7003;42935;50.966;16.992;2023-09-19T08:24:08;2;1;1
57049;PMS7003;42935;50.966;16.992;2023-09-19T08:27:23;2;2;2
57049;PMS7003;42935;50.966;16.992;2023-09-19T08:30:41;3;2;2
57049;PMS7003;42935;50.966;16.992;2023-09-19T08:33:56;2;2;2
57049;PMS7003;42935;50.966;16.992;2023-09-19T08:37:14;2;2;2
57049;PMS7003;42935;50.966;16.992;2023-09-19T08:40:37;3;2;2
57049;PMS7003;42935;50.966;16.992;2023-09-19T08:43:59;3;3;2
57049;PMS7003;42935;50.966;16.992;2023-09-19T08:47:16;4;2;2
57049;PMS7003;42935;50.966;16.992;2023-09-19T08:50:39;4;2;2
57049;PMS7003;42935;50.966;16.992;2023-09-19T08:54:05;5;3;3
57049;PMS7003;42935;50.966;16.992;2023-09-19T08:57:25;3;2;2
57049;PMS7003;42935;50.966;16.992;2023-09-19T09:00:50;3;3;2
57049;PMS7003;42935;50.966;16.992;2023-09-19T09:04:10;3;3;2
57049;PMS7003;42935;50.966;16.992;2023-09-19T09:07:28;3;3;2
57049;PMS7003;42935;50.966;16.992;2023-09-19T09:10:45;3;2;2
57049;PMS7003;42935;50.966;16.992;2023-09-19T09:14:02;3;2;2
57049;PMS7003;42935;50.966;16.992;2023-09-19T09:17:15;3;1;1
57049;PMS7003;42935;50.966;16.992;2023-09-19T09:20:34;3;3;2
57049;PMS7003;42935;50.966;16.992;2023-09-19T09:34:38;3;3;2
57049;PMS7003;42935;50.966;16.992;2023-09-19T09:37:59;3;2;1
57049;PMS7003;42935;50.966;16.992;2023-09-19T09:41:35;4;4;3
57049;PMS7003;42935;50.966;16.992;2023-09-19T09:45:11;3;3;2
57049;PMS7003;42935;50.966;16.992;2023-09-19T09:48:24;4;4;3
57049;PMS7003;42935;50.966;16.992;2023-09-19T09:51:45;3;3;2
57049;PMS7003;42935;50.966;16.992;2023-09-19T09:55:17;4;3;2
57049;PMS7003;42935;50.966;16.992;2023-09-19T09:58:51;3;3;3
57049;PMS7003;42935;50.966;16.992;2023-09-19T10:02:12;3;3;2
57049;PMS7003;42935;50.966;16.992;2023-09-19T10:05:45;3;3;2
57049;PMS7003;42935;50.966;16.992;2023-09-19T10:09:02;2;2;1
57049;PMS7003;42935;50.966;16.992;2023-09-19T10:12:29;2;2;2
57049;PMS7003;42935;50.966;16.992;2023-09-19T10:15:57;2;2;1
57049;PMS7003;42935;50.966;16.992;2023-09-19T10:22:49;2;2;2
57049;PMS7003;42935;50.966;16.992;2023-09-19T10:26:08;3;2;2
57049;PMS7003;42935;50.966;16.992;2023-09-19T10:29:21;3;3;2
57049;PMS7003;42935;50.966;16.992;2023-09-19T10:32:39;3;3;2
57049;PMS7003;42935;50.966;16.992;2023-09-19T10:35:56;4;3;2
57049;PMS7003;42935;50.966;16.992;2023-09-19T10:39:12;3;2;2
57049;PMS7003;42935;50.966;16.992;2023-09-19T10:42:34;3;3;3
57049;PMS7003;42935;50.966;16.992;2023-09-19T10:45:52;3;2;2
57049;PMS7003;42935;50.966;16.992;2023-09-19T10:49:15;3;3;2
57049;PMS7003;42935;50.966;16.992;2023-09-19T10:52:33;4;3;2
57049;PMS7003;42935;50.966;16.992;2023-09-19T10:55:56;2;2;1
57049;PMS7003;42935;50.966;16.992;2023-09-19T10:59:16;3;3;2
57049;PMS7003;42935;50.966;16.992;2023-09-19T11:02:31;4;2;2
57049;PMS7003;42935;50.966;16.992;2023-09-19T11:06:22;3;2;2
57049;PMS7003;42935;50.966;16.992;2023-09-19T11:20:15;2;2;2
57049;PMS7003;42935;50.966;16.992;2023-09-19T11:24:11;2;2;1
57049;PMS7003;42935;50.966;16.992;2023-09-19T11:27:16;1;1;1
57049;PMS7003;42935;50.966;16.992;2023-09-19T11:30:36;1;1;1
57049;PMS7003;42935;50.966;16.992;2023-09-19T11:41:11;0;0;0
57049;PMS7003;42935;50.966;16.992;2023-09-19T11:47:40;0;0;0
57049;PMS7003;42935;50.966;16.992;2023-09-19T11:50:59;0;0;0
57049;PMS7003;42935;50.966;16.992;2023-09-19T11:54:24;2;1;0
57049;PMS7003;42935;50.966;16.992;2023-09-19T11:57:50;2;1;1
57049;PMS7003;42935;50.966;16.992;2023-09-19T12:01:08;1;1;1
57049;PMS7003;42935;50.966;16.992;2023-09-19T12:04:33;1;0;0
57049;PMS7003;42935;50.966;16.992;2023-09-19T12:07:50;0;0;0
57049;PMS7003;42935;50.966;16.992;2023-09-19T12:11:03;0;0;0
57049;PMS7003;42935;50.966;16.992;2023-09-19T12:14:53;1;1;1
57049;PMS7003;42935;50.966;16.992;2023-09-19T12:18:08;1;1;0
57049;PMS7003;42935;50.966;16.992;2023-09-19T12:21:24;0;0;0
57049;PMS7003;42935;50.966;16.992;2023-09-19T12:24:52;1;1;1
57049;PMS7003;42935;50.966;16.992;2023-09-19T12:28:10;2;2;2
57049;PMS7003;42935;50.966;16.992;2023-09-19T12:31:28;1;1;0
57049;PMS7003;42935;50.966;16.992;2023-09-19T12:34:52;1;0;0
57049;PMS7003;42935;50.966;16.992;2023-09-19T12:38:10;1;1;1
57049;PMS7003;42935;50.966;16.992;2023-09-19T12:41:41;1;1;1
57049;PMS7003;42935;50.966;16.992;2023-09-19T12:45:06;1;1;1
57049;PMS7003;42935;50.966;16.992;2023-09-19T12:48:24;1;0;0
57049;PMS7003;42935;50.966;16.992;2023-09-19T12:51:47;0;0;0
57049;PMS7003;42935;50.966;16.992;2023-09-19T12:55:01;2;1;1
57049;PMS7003;42935;50.966;16.992;2023-09-19T12:58:15;1;0;0
57049;PMS7003;42935;50.966;16.992;2023-09-19T13:01:34;1;1;1
57049;PMS7003;42935;50.966;16.992;2023-09-19T13:04:56;1;1;1
57049;PMS7003;42935;50.966;16.992;2023-09-19T13:11:47;2;1;1
57049;PMS7003;42935;50.966;16.992;2023-09-19T13:18:45;2;1;1
57049;PMS7003;42935;50.966;16.992;2023-09-19T13:25:34;2;1;1
57049;PMS7003;42935;50.966;16.992;2023-09-19T13:28:51;1;0;0
57049;PMS7003;42935;50.966;16.992;2023-09-19T13:32:07;1;1;1
57049;PMS7003;42935;50.966;16.992;2023-09-19T13:35:24;1;1;1
57049;PMS7003;42935;50.966;16.992;2023-09-19T13:38:41;1;1;0
57049;PMS7003;42935;50.966;16.992;2023-09-19T13:41:58;1;1;1
57049;PMS7003;42935;50.966;16.992;2023-09-19T13:45:17;0;0;0
57049;PMS7003;42935;50.966;16.992;2023-09-19T13:48:39;1;1;1
57049;PMS7003;42935;50.966;16.992;2023-09-19T13:51:56;1;1;0
57049;PMS7003;42935;50.966;16.992;2023-09-19T13:55:14;1;1;1
57049;PMS7003;42935;50.966;16.992;2023-09-19T13:58:35;1;0;0
57049;PMS7003;42935;50.966;16.992;2023-09-19T14:01:50;2;1;1
57049;PMS7003;42935;50.966;16.992;2023-09-19T14:05:08;1;1;1
57049;PMS7003;42935;50.966;16.992;2023-09-19T14:08:29;1;1;1
57049;PMS7003;42935;50.966;16.992;2023-09-19T14:11:50;1;1;0
57049;PMS7003;42935;50.966;16.992;2023-09-19T14:15:07;1;1;1
57049;PMS7003;42935;50.966;16.992;2023-09-19T14:18:25;2;1;1
57049;PMS7003;42935;50.966;16.992;2023-09-19T14:21:36;1;1;1
57049;PMS7003;42935;50.966;16.992;2023-09-19T14:24:52;1;1;1
57049;PMS7003;42935;50.966;16.992;2023-09-19T14:28:10;1;1;1
57049;PMS7003;42935;50.966;16.992;2023-09-19T14:31:23;1;1;1
57049;PMS7003;42935;50.966;16.992;2023-09-19T14:34:42;1;1;1
57049;PMS7003;42935;50.966;16.992;2023-09-19T14:37:57;3;2;1
57049;PMS7003;42935;50.966;16.992;2023-09-19T14:41:14;1;1;1
57049;PMS7003;42935;50.966;16.992;2023-09-19T14:44:31;1;1;1
57049;PMS7003;42935;50.966;16.992;2023-09-19T14:47:50;1;1;1
57049;PMS7003;42935;50.966;16.992;2023-09-19T14:51:06;2;2;1
57049;PMS7003;42935;50.966;16.992;2023-09-19T14:54:26;1;1;1
57049;PMS7003;42935;50.966;16.992;2023-09-19T14:57:42;1;1;1
57049;PMS7003;42935;50.966;16.992;2023-09-19T15:01:05;1;1;1
57049;PMS7003;42935;50.966;16.992;2023-09-19T15:04:25;2;2;2
57049;PMS7003;42935;50.966;16.992;2023-09-19T15:07:44;4;1;1
57049;PMS7003;42935;50.966;16.992;2023-09-19T15:11:01;1;1;1
57049;PMS7003;42935;50.966;16.992;2023-09-19T15:14:22;1;1;1
57049;PMS7003;42935;50.966;16.992;2023-09-19T15:17:40;2;2;2
57049;PMS7003;42935;50.966;16.992;2023-09-19T15:20:53;3;1;1
57049;PMS7003;42935;50.966;16.992;2023-09-19T15:24:08;1;1;1
57049;PMS7003;42935;50.966;16.992;2023-09-19T15:27:25;1;1;1
57049;PMS7003;42935;50.966;16.992;2023-09-19T15:30:43;1;1;1
57049;PMS7003;42935;50.966;16.992;2023-09-19T15:33:56;1;1;1
57049;PMS7003;42935;50.966;16.992;2023-09-19T15:37:15;1;1;1
57049;PMS7003;42935;50.966;16.992;2023-09-19T15:40:45;1;1;1
57049;PMS7003;42935;50.966;16.992;2023-09-19T15:44:02;3;2;1
57049;PMS7003;42935;50.966;16.992;2023-09-19T15:47:19;1;1;1
57049;PMS7003;42935;50.966;16.992;2023-09-19T15:50:36;1;1;1
57049;PMS7003;42935;50.966;16.992;2023-09-19T15:53:55;2;2;1
57049;PMS7003;42935;50.966;16.992;2023-09-19T15:57:12;1;1;1
57049;PMS7003;42935;50.966;16.992;2023-09-19T16:01:04;1;1;0
57049;PMS7003;42935;50.966;16.992;2023-09-19T16:04:21;1;1;1
57049;PMS7003;42935;50.966;16.992;2023-09-19T16:07:38;1;1;1
57049;PMS7003;42935;50.966;16.992;2023-09-19T16:10:51;3;1;1
57049;PMS7003;42935;50.966;16.992;2023-09-19T16:14:16;1;1;1
57049;PMS7003;42935;50.966;16.992;2023-09-19T16:17:29;2;2;1
57049;PMS7003;42935;50.966;16.992;2023-09-19T16:20:46;3;1;1
57049;PMS7003;42935;50.966;16.992;2023-09-19T16:24:03;2;1;1
57049;PMS7003;42935;50.966;16.992;2023-09-19T16:27:19;2;2;1
57049;PMS7003;42935;50.966;16.992;2023-09-19T16:30:36;2;2;1
57049;PMS7003;42935;50.966;16.992;2023-09-19T16:33:53;2;2;2
57049;PMS7003;42935;50.966;16.992;2023-09-19T16:37:19;2;2;1
57049;PMS7003;42935;50.966;16.992;2023-09-19T16:40:37;3;1;1
57049;PMS7003;42935;50.966;16.992;2023-09-19T16:43:53;2;1;1
57049;PMS7003;42935;50.966;16.992;2023-09-19T16:47:04;2;2;2
57049;PMS7003;42935;50.966;16.992;2023-09-19T16:50:21;3;2;2
57049;PMS7003;42935;50.966;16.992;2023-09-19T16:53:39;2;2;1
57049;PMS7003;42935;50.966;16.992;2023-09-19T16:57:01;2;1;1
57049;PMS7003;42935;50.966;16.992;2023-09-19T17:00:15;3;2;1
57049;PMS7003;42935;50.966;16.992;2023-09-19T17:03:34;2;2;2
57049;PMS7003;42935;50.966;16.992;2023-09-19T17:06:47;3;2;2
57049;PMS7003;42935;50.966;16.992;2023-09-19T17:10:00;3;3;3
57049;PMS7003;42935;50.966;16.992;2023-09-19T17:13:17;2;2;1
57049;PMS7003;42935;50.966;16.992;2023-09-19T17:16:31;3;3;2
57049;PMS7003;42935;50.966;16.992;2023-09-19T17:20:24;3;2;2
57049;PMS7003;42935;50.966;16.992;2023-09-19T17:23:43;2;2;1
57049;PMS7003;42935;50.966;16.992;2023-09-19T17:26:57;3;3;2
57049;PMS7003;42935;50.966;16.992;2023-09-19T17:30:11;4;4;3
57049;PMS7003;42935;50.966;16.992;2023-09-19T17:33:28;3;3;2
57049;PMS7003;42935;50.966;16.992;2023-09-19T17:36:44;3;3;2
57049;PMS7003;42935;50.966;16.992;2023-09-19T17:39:59;3;2;2
57049;PMS7003;42935;50.966;16.992;2023-09-19T17:43:26;2;2;2
57049;PMS7003;42935;50.966;16.992;2023-09-19T17:46:38;1;1;1
57049;PMS7003;42935;50.966;16.992;2023-09-19T17:49:51;3;3;2
57049;PMS7003;42935;50.966;16.992;2023-09-19T17:53:10;3;3;2
57049;PMS7003;42935;50.966;16.992;2023-09-19T17:56:35;4;3;2
57049;PMS7003;42935;50.966;16.992;2023-09-19T17:59:56;3;3;3
57049;PMS7003;42935;50.966;16.992;2023-09-19T18:03:11;3;3;2
57049;PMS7003;42935;50.966;16.992;2023-09-19T18:06:28;3;3;3
57049;PMS7003;42935;50.966;16.992;2023-09-19T18:09:48;3;2;2
57049;PMS7003;42935;50.966;16.992;2023-09-19T18:13:01;3;3;3
57049;PMS7003;42935;50.966;16.992;2023-09-19T18:16:18;3;3;2
57049;PMS7003;42935;50.966;16.992;2023-09-19T18:19:40;3;3;2
57049;PMS7003;42935;50.966;16.992;2023-09-19T18:22:57;3;3;3
57049;PMS7003;42935;50.966;16.992;2023-09-19T18:26:14;3;2;2
57049;PMS7003;42935;50.966;16.992;2023-09-19T18:29:32;4;3;2
57049;PMS7003;42935;50.966;16.992;2023-09-19T18:32:47;3;3;3
57049;PMS7003;42935;50.966;16.992;2023-09-19T18:36:07;5;5;4
57049;PMS7003;42935;50.966;16.992;2023-09-19T18:39:22;6;3;3
57049;PMS7003;42935;50.966;16.992;2023-09-19T18:42:38;4;4;3
57049;PMS7003;42935;50.966;16.992;2023-09-19T18:45:58;4;3;3
57049;PMS7003;42935;50.966;16.992;2023-09-19T18:49:12;5;5;3
57049;PMS7003;42935;50.966;16.992;2023-09-19T18:52:32;7;5;4
57049;PMS7003;42935;50.966;16.992;2023-09-19T18:55:47;7;4;3
57049;PMS7003;42935;50.966;16.992;2023-09-19T18:59:02;5;5;4
57049;PMS7003;42935;50.966;16.992;2023-09-19T19:02:19;4;4;4
57049;PMS7003;42935;50.966;16.992;2023-09-19T19:05:38;5;5;4
57049;PMS7003;42935;50.966;16.992;2023-09-19T19:08:53;6;5;4
57049;PMS7003;42935;50.966;16.992;2023-09-19T19:12:10;6;5;4
57049;PMS7003;42935;50.966;16.992;2023-09-19T19:15:27;3;3;3
57049;PMS7003;42935;50.966;16.992;2023-09-19T19:18:46;5;4;4
57049;PMS7003;42935;50.966;16.992;2023-09-19T19:22:05;6;5;4
57049;PMS7003;42935;50.966;16.992;2023-09-19T19:25:22;6;6;5
57049;PMS7003;42935;50.966;16.992;2023-09-19T19:28:38;6;6;5
57049;PMS7003;42935;50.966;16.992;2023-09-19T19:32:03;7;5;4
57049;PMS7003;42935;50.966;16.992;2023-09-19T19:35:18;6;5;4
57049;PMS7003;42935;50.966;16.992;2023-09-19T19:38:45;5;5;4
57049;PMS7003;42935;50.966;16.992;2023-09-19T19:41:59;5;4;4
57049;PMS7003;42935;50.966;16.992;2023-09-19T19:45:16;6;5;4
57049;PMS7003;42935;50.966;16.992;2023-09-19T19:48:34;8;6;5
57049;PMS7003;42935;50.966;16.992;2023-09-19T19:51:53;6;6;5
57049;PMS7003;42935;50.966;16.992;2023-09-19T19:55:11;9;8;6
57049;PMS7003;42935;50.966;16.992;2023-09-19T19:58:30;9;8;6
57049;PMS7003;42935;50.966;16.992;2023-09-19T20:01:44;6;5;5
57049;PMS7003;42935;50.966;16.992;2023-09-19T20:05:06;7;6;5
57049;PMS7003;42935;50.966;16.992;2023-09-19T20:08:21;7;6;5
57049;PMS7003;42935;50.966;16.992;2023-09-19T20:11:41;7;6;6
57049;PMS7003;42935;50.966;16.992;2023-09-19T20:14:55;8;8;6
57049;PMS7003;42935;50.966;16.992;2023-09-19T20:18:17;8;7;5
57049;PMS7003;42935;50.966;16.992;2023-09-19T20:21:31;8;6;5
57049;PMS7003;42935;50.966;16.992;2023-09-19T20:24:48;10;9;6
57049;PMS7003;42935;50.966;16.992;2023-09-19T20:28:04;8;7;7
57049;PMS7003;42935;50.966;16.992;2023-09-19T20:31:18;9;7;6
57049;PMS7003;42935;50.966;16.992;2023-09-19T20:34:35;10;8;6
57049;PMS7003;42935;50.966;16.992;2023-09-19T20:37:49;9;9;7
57049;PMS7003;42935;50.966;16.992;2023-09-19T20:41:10;8;7;5
57049;PMS7003;42935;50.966;16.992;2023-09-19T20:44:28;10;8;7
57049;PMS7003;42935;50.966;16.992;2023-09-19T20:47:45;10;9;7
57049;PMS7003;42935;50.966;16.992;2023-09-19T20:54:31;11;9;7
57049;PMS7003;42935;50.966;16.992;2023-09-19T20:57:48;10;9;8
57049;PMS7003;42935;50.966;16.992;2023-09-19T21:01:08;8;8;6
57049;PMS7003;42935;50.966;16.992;2023-09-19T21:04:54;8;8;6
57049;PMS7003;42935;50.966;16.992;2023-09-19T21:08:09;9;7;6
57049;PMS7003;42935;50.966;16.992;2023-09-19T21:11:22;11;9;7
57049;PMS7003;42935;50.966;16.992;2023-09-19T21:14:41;9;8;6
57049;PMS7003;42935;50.966;16.992;2023-09-19T21:18:02;10;8;6
57049;PMS7003;42935;50.966;16.992;2023-09-19T21:21:15;9;7;5
57049;PMS7003;42935;50.966;16.992;2023-09-19T21:24:33;9;8;7
57049;PMS7003;42935;50.966;16.992;2023-09-19T21:27:52;9;8;6
57049;PMS7003;42935;50.966;16.992;2023-09-19T21:31:09;11;8;7
57049;PMS7003;42935;50.966;16.992;2023-09-19T21:34:25;9;9;8
57049;PMS7003;42935;50.966;16.992;2023-09-19T21:37:42;8;8;6
57049;PMS7003;42935;50.966;16.992;2023-09-19T21:41:05;8;8;7
57049;PMS7003;42935;50.966;16.992;2023-09-19T21:44:28;8;8;7
57049;PMS7003;42935;50.966;16.992;2023-09-19T21:47:49;11;9;6
57049;PMS7003;42935;50.966;16.992;2023-09-19T21:51:06;9;8;7
57049;PMS7003;42935;50.966;16.992;2023-09-19T21:54:21;8;7;6
57049;PMS7003;42935;50.966;16.992;2023-09-19T21:57:35;10;9;8
57049;PMS7003;42935;50.966;16.992;2023-09-19T22:00:53;9;8;7
57049;PMS7003;42935;50.966;16.992;2023-09-19T22:04:06;9;7;7
57049;PMS7003;42935;50.966;16.992;2023-09-19T22:07:24;9;8;6
57049;PMS7003;42935;50.966;16.992;2023-09-19T22:13:58;9;8;7
57049;PMS7003;42935;50.966;16.992;2023-09-19T22:17:12;9;9;7
57049;PMS7003;42935;50.966;16.992;2023-09-19T22:20:27;9;7;6
57049;PMS7003;42935;50.966;16.992;2023-09-19T22:23:45;7;7;6
57049;PMS7003;42935;50.966;16.992;2023-09-19T22:27:00;11;9;7
57049;PMS7003;42935;50.966;16.992;2023-09-19T22:30:20;8;8;6
57049;PMS7003;42935;50.966;16.992;2023-09-19T22:33:34;10;9;7
57049;PMS7003;42935;50.966;16.992;2023-09-19T22:36:53;11;10;7
57049;PMS7003;42935;50.966;16.992;2023-09-19T22:40:05;7;7;6
57049;PMS7003;42935;50.966;16.992;2023-09-19T22:43:33;10;8;6
57049;PMS7003;42935;50.966;16.992;2023-09-19T22:46:51;9;8;7
57049;PMS7003;42935;50.966;16.992;2023-09-19T22:50:09;10;7;6
57049;PMS7003;42935;50.966;16.992;2023-09-19T22:53:25;6;6;5
57049;PMS7003;42935;50.966;16.992;2023-09-19T22:56:43;9;8;6
57049;PMS7003;42935;50.966;16.992;2023-09-19T23:00:11;8;8;7
57049;PMS7003;42935;50.966;16.992;2023-09-19T23:03:32;7;6;4
57049;PMS7003;42935;50.966;16.992;2023-09-19T23:06:50;10;8;5